createdAt,value
2022-08-14T00:02:27.875Z,22.20
2022-08-14T00:05:00.379Z,22.20
2022-08-14T00:07:28.784Z,22.20
2022-08-14T00:10:50.179Z,22.20
2022-08-14T00:12:56.872Z,22.10
2022-08-14T00:15:43.292Z,22.10
2022-08-14T00:18:30.611Z,22.10
2022-08-14T00:21:10.851Z,22.10
2022-08-14T00:23:40.339Z,22.00
2022-08-14T00:26:21.636Z,22.00
2022-08-14T00:28:50.613Z,22.00
2022-08-14T00:31:20.035Z,22.00
2022-08-14T00:34:36.626Z,22.00
2022-08-14T00:36:52.733Z,21.90
2022-08-14T00:39:22.036Z,21.90
2022-08-14T00:41:51.759Z,21.90
2022-08-14T00:44:31.959Z,21.90
2022-08-14T00:47:02.476Z,21.80
2022-08-14T00:49:37.991Z,21.70
2022-08-14T00:52:11.436Z,21.70
2022-08-14T00:54:43.354Z,21.70
2022-08-14T00:57:13.624Z,21.70
2022-08-14T00:59:42.205Z,21.60
2022-08-14T01:02:11.730Z,21.60
2022-08-14T01:04:53.432Z,21.60
2022-08-14T01:07:27.255Z,21.60
2022-08-14T01:10:01.684Z,21.60
2022-08-14T01:12:32.757Z,21.50
2022-08-14T01:15:03.206Z,21.50
2022-08-14T01:17:49.750Z,21.40
2022-08-14T01:20:39.971Z,21.40
2022-08-14T01:23:16.337Z,21.30
2022-08-14T01:25:51.082Z,21.20
2022-08-14T01:28:46.210Z,21.20
2022-08-14T01:31:14.264Z,21.10
2022-08-14T01:33:59.781Z,21.10
2022-08-14T01:36:35.455Z,21.10
2022-08-14T01:39:09.532Z,21.10
2022-08-14T01:41:43.370Z,21.00
2022-08-14T01:44:32.551Z,21.00
2022-08-14T01:47:12.324Z,21.00
2022-08-14T01:50:00.024Z,21.00
2022-08-14T01:52:58.473Z,20.90
2022-08-14T01:55:32.249Z,20.90
2022-08-14T01:58:20.079Z,20.90
2022-08-14T02:00:54.439Z,20.90
2022-08-14T02:03:29.880Z,20.80
2022-08-14T02:06:03.577Z,20.80
2022-08-14T02:08:52.891Z,20.80
2022-08-14T02:11:26.967Z,20.80
2022-08-14T02:14:07.546Z,20.70
2022-08-14T02:16:39.427Z,20.70
2022-08-14T02:19:11.835Z,20.70
2022-08-14T02:21:46.860Z,20.60
2022-08-14T02:24:39.753Z,20.60
2022-08-14T02:28:25.238Z,20.60
2022-08-14T02:30:02.031Z,20.50
2022-08-14T02:32:46.756Z,20.40
2022-08-14T02:35:18.914Z,20.40
2022-08-14T02:37:49.582Z,20.30
2022-08-14T02:40:19.976Z,20.30
2022-08-14T02:42:55.081Z,20.30
2022-08-14T02:45:38.397Z,20.30
2022-08-14T02:49:02.726Z,20.20
2022-08-14T02:51:07.208Z,20.20
2022-08-14T02:53:42.298Z,20.20
2022-08-14T02:56:30.645Z,20.10
2022-08-14T02:59:06.507Z,20.00
2022-08-14T03:01:43.278Z,20.00
2022-08-14T03:04:20.667Z,19.90
2022-08-14T03:07:06.204Z,19.90
2022-08-14T03:10:24.441Z,19.90
2022-08-14T03:12:32.204Z,19.90
2022-08-14T03:15:13.912Z,19.80
2022-08-14T03:17:57.769Z,19.80
2022-08-14T03:20:28.833Z,19.80
2022-08-14T03:23:03.252Z,19.80
2022-08-14T03:25:34.180Z,19.80
2022-08-14T03:28:08.174Z,19.80
2022-08-14T03:30:44.664Z,19.70
2022-08-14T03:33:14.200Z,19.70
2022-08-14T03:36:05.488Z,19.70
2022-08-14T03:39:16.103Z,19.70
2022-08-14T03:41:24.975Z,19.60
2022-08-14T03:43:57.101Z,19.50
2022-08-14T03:46:54.428Z,19.60
2022-08-14T03:49:28.869Z,19.50
2022-08-14T03:52:01.327Z,19.50
2022-08-14T03:54:30.348Z,19.50
2022-08-14T03:57:02.969Z,19.40
2022-08-14T03:59:32.894Z,19.40
2022-08-14T04:02:04.453Z,19.40
2022-08-14T04:04:33.976Z,19.40
2022-08-14T04:07:03.331Z,19.30
2022-08-14T04:09:31.687Z,19.30
2022-08-14T04:11:59.986Z,19.30
2022-08-14T04:14:30.271Z,19.20
2022-08-14T04:16:58.596Z,19.20
2022-08-14T04:19:33.080Z,19.20
2022-08-14T04:22:07.805Z,19.20
2022-08-14T04:24:38.169Z,19.20
2022-08-14T04:27:09.769Z,19.20
2022-08-14T04:29:39.649Z,19.20
2022-08-14T04:32:58.019Z,19.20
2022-08-14T04:34:59.343Z,19.10
2022-08-14T04:37:46.187Z,19.10
2022-08-14T04:40:40.502Z,19.10
2022-08-14T04:43:26.860Z,19.10
2022-08-14T04:46:11.918Z,19.10
2022-08-14T04:48:59.689Z,19.10
2022-08-14T04:51:46.949Z,19.10
2022-08-14T04:54:18.417Z,19.10
2022-08-14T04:56:46.731Z,19.20
2022-08-14T04:59:15.038Z,19.20
2022-08-14T05:01:48.748Z,19.20
2022-08-14T05:04:21.523Z,19.20
2022-08-14T05:06:54.279Z,19.20
2022-08-14T05:09:24.084Z,19.30
2022-08-14T05:11:53.065Z,19.30
2022-08-14T05:14:45.877Z,19.30
2022-08-14T05:17:12.007Z,19.40
2022-08-14T05:19:44.958Z,19.40
2022-08-14T05:22:31.441Z,19.50
2022-08-14T05:25:00.245Z,19.50
2022-08-14T05:27:31.221Z,19.60
2022-08-14T05:30:01.212Z,19.60
2022-08-14T05:32:29.516Z,19.60
2022-08-14T05:34:59.451Z,19.70
2022-08-14T05:37:30.855Z,19.70
2022-08-14T05:40:01.918Z,19.80
2022-08-14T05:42:33.929Z,19.80
2022-08-14T05:45:11.041Z,19.80
2022-08-14T05:47:43.140Z,19.80
2022-08-14T05:50:17.393Z,19.90
2022-08-14T05:52:50.971Z,19.90
2022-08-14T05:55:22.130Z,19.90
2022-08-14T05:57:59.697Z,19.90
2022-08-14T06:00:36.929Z,20.00
2022-08-14T06:03:11.422Z,20.00
2022-08-14T06:05:40.303Z,20.10
2022-08-14T06:08:31.504Z,20.10
2022-08-14T06:11:09.142Z,20.20
2022-08-14T06:13:41.124Z,20.20
2022-08-14T06:16:18.715Z,20.30
2022-08-14T06:18:52.652Z,20.30
2022-08-14T06:21:22.610Z,20.30
2022-08-14T06:23:52.843Z,20.40
2022-08-14T06:26:22.462Z,20.50
2022-08-14T06:28:51.829Z,20.60
2022-08-14T06:31:22.736Z,20.60
2022-08-14T06:35:09.432Z,20.70
2022-08-14T06:36:39.780Z,20.70
2022-08-14T06:39:10.560Z,20.80
2022-08-14T06:41:58.559Z,20.90
2022-08-14T06:44:30.565Z,20.90
2022-08-14T06:47:03.428Z,21.00
2022-08-14T06:49:40.089Z,21.10
2022-08-14T06:52:16.108Z,21.20
2022-08-14T06:54:46.771Z,21.30
2022-08-14T06:57:15.056Z,21.40
2022-08-14T06:59:43.381Z,21.40
2022-08-14T07:02:29.740Z,21.50
2022-08-14T07:05:20.981Z,21.60
2022-08-14T07:07:52.716Z,21.70
2022-08-14T07:10:25.392Z,21.80
2022-08-14T07:13:01.423Z,21.90
2022-08-14T07:15:34.380Z,21.90
2022-08-14T07:18:09.662Z,22.00
2022-08-14T07:20:38.825Z,22.20
2022-08-14T07:23:11.143Z,22.30
2022-08-14T07:25:52.290Z,22.30
2022-08-14T07:28:24.543Z,22.50
2022-08-14T07:30:57.600Z,22.50
2022-08-14T07:33:41.878Z,22.60
2022-08-14T07:36:27.340Z,22.60
2022-08-14T07:38:59.706Z,22.80
2022-08-14T07:41:33.507Z,22.90
2022-08-14T07:44:32.482Z,23.00
2022-08-14T07:46:51.915Z,23.10
2022-08-14T07:49:20.889Z,23.20
2022-08-14T07:51:52.548Z,23.30
2022-08-14T07:54:23.480Z,23.40
2022-08-14T07:57:00.609Z,23.40
2022-08-14T07:59:42.523Z,23.60
2022-08-14T08:02:18.762Z,23.70
2022-08-14T08:04:54.668Z,23.90
2022-08-14T08:07:29.793Z,24.10
2022-08-14T08:10:02.356Z,24.50
2022-08-14T08:12:33.191Z,25.00
2022-08-14T08:15:07.301Z,25.70
2022-08-14T08:17:42.542Z,26.50
2022-08-14T08:20:27.163Z,27.50
2022-08-14T08:23:00.364Z,28.20
2022-08-14T08:25:40.097Z,29.00
2022-08-14T08:28:25.085Z,29.70
2022-08-14T08:30:56.497Z,30.00
2022-08-14T08:33:31.804Z,30.60
2022-08-14T08:36:03.684Z,31.00
2022-08-14T08:39:16.446Z,31.30
2022-08-14T08:41:20.341Z,31.60
2022-08-14T08:43:52.607Z,31.90
2022-08-14T08:46:23.979Z,32.00
2022-08-14T08:51:30.834Z,32.50
2022-08-14T08:54:05.461Z,32.80
2022-08-14T08:56:40.563Z,32.90
2022-08-14T08:59:30.913Z,33.10
2022-08-14T09:02:01.910Z,33.30
2022-08-14T09:04:45.272Z,33.40
2022-08-14T09:07:27.008Z,33.60
2022-08-14T09:09:59.090Z,33.70
2022-08-14T09:12:31.562Z,33.70
2022-08-14T09:15:12.340Z,33.60
2022-08-14T09:17:42.187Z,33.60
2022-08-14T09:20:19.354Z,33.70
2022-08-14T09:22:56.638Z,33.80
2022-08-14T09:25:58.621Z,33.90
2022-08-14T09:28:15.309Z,34.00
2022-08-14T09:30:50.201Z,34.10
2022-08-14T09:33:35.509Z,34.30
2022-08-14T09:36:47.917Z,34.40
2022-08-14T09:39:38.478Z,34.70
2022-08-14T09:42:33.452Z,34.80
2022-08-14T09:45:16.711Z,34.90
2022-08-14T09:47:51.938Z,35.10
2022-08-14T09:50:28.351Z,35.20
2022-08-14T09:52:59.971Z,35.10
2022-08-14T09:55:36.809Z,35.10
2022-08-14T09:58:19.928Z,35.20
2022-08-14T10:00:53.980Z,35.30
2022-08-14T10:03:34.398Z,35.20
2022-08-14T10:06:12.143Z,35.30
2022-08-14T10:08:50.865Z,35.20
2022-08-14T10:11:23.874Z,35.30
2022-08-14T10:13:55.901Z,35.30
2022-08-14T10:16:33.670Z,35.30
2022-08-14T10:19:09.275Z,35.30
2022-08-14T10:23:11.298Z,35.40
2022-08-14T10:24:37.376Z,35.50
2022-08-14T10:27:18.255Z,35.50
2022-08-14T10:29:51.648Z,35.40
2022-08-14T10:32:29.108Z,35.30
2022-08-14T10:35:13.998Z,35.00
2022-08-14T10:37:48.128Z,35.00
2022-08-14T10:40:37.045Z,34.90
2022-08-14T10:43:23.886Z,35.00
2022-08-14T10:46:21.543Z,35.10
2022-08-14T10:49:04.206Z,35.10
2022-08-14T10:51:36.047Z,35.30
2022-08-14T10:54:26.010Z,35.30
2022-08-14T10:56:58.477Z,35.50
2022-08-14T10:59:34.972Z,35.70
2022-08-14T11:02:17.647Z,35.80
2022-08-14T11:05:11.375Z,36.00
2022-08-14T11:07:43.769Z,36.30
2022-08-14T11:10:15.224Z,36.20
2022-08-14T11:12:48.021Z,36.20
2022-08-14T11:15:19.337Z,36.40
2022-08-14T11:17:48.908Z,36.60
2022-08-14T11:20:24.379Z,36.80
2022-08-14T11:22:58.904Z,37.10
2022-08-14T11:25:43.273Z,36.90
2022-08-14T11:28:19.038Z,36.80
2022-08-14T11:30:54.006Z,36.90
2022-08-14T11:33:31.146Z,36.90
2022-08-14T11:36:01.963Z,37.00
2022-08-14T11:38:38.237Z,37.10
2022-08-14T11:41:07.517Z,37.10
2022-08-14T11:43:41.878Z,37.20
2022-08-14T11:46:17.882Z,37.30
2022-08-14T11:49:03.620Z,37.30
2022-08-14T11:51:35.931Z,37.60
2022-08-14T11:54:20.644Z,37.80
2022-08-14T11:57:04.422Z,37.80
2022-08-14T11:59:34.325Z,37.80
2022-08-14T12:02:39.050Z,37.90
2022-08-14T12:05:00.623Z,38.20
2022-08-14T12:07:33.312Z,38.20
2022-08-14T12:10:25.713Z,38.40
2022-08-14T12:12:56.490Z,38.60
2022-08-14T12:15:34.836Z,38.80
2022-08-14T12:18:05.062Z,38.80
2022-08-14T12:20:45.837Z,38.80
2022-08-14T12:23:27.880Z,38.70
2022-08-14T12:26:31.670Z,38.70
2022-08-14T12:29:09.219Z,38.60
2022-08-14T12:31:44.428Z,38.70
2022-08-14T12:34:20.127Z,38.80
2022-08-14T12:36:49.268Z,38.90
2022-08-14T12:39:23.975Z,39.00
2022-08-14T12:42:01.655Z,39.20
2022-08-14T12:44:35.988Z,39.30
2022-08-14T12:47:07.695Z,39.60
2022-08-14T12:49:36.518Z,39.80
2022-08-14T12:52:12.214Z,39.60
2022-08-14T12:55:01.684Z,39.60
2022-08-14T12:57:42.952Z,39.60
2022-08-14T13:00:22.616Z,39.40
2022-08-14T13:02:56.901Z,39.20
2022-08-14T13:05:29.077Z,39.10
2022-08-14T13:07:59.353Z,39.10
2022-08-14T13:10:47.756Z,39.00
2022-08-14T13:13:23.609Z,38.90
2022-08-14T13:15:57.286Z,38.80
2022-08-14T13:18:28.021Z,38.70
2022-08-14T13:21:02.183Z,38.70
2022-08-14T13:23:37.323Z,38.70
2022-08-14T13:26:07.651Z,38.60
2022-08-14T13:29:02.466Z,38.60
2022-08-14T13:31:34.501Z,38.40
2022-08-14T13:34:04.526Z,38.30
2022-08-14T13:36:54.679Z,38.40
2022-08-14T13:39:26.125Z,38.60
2022-08-14T13:41:55.724Z,38.80
2022-08-14T13:44:28.732Z,39.10
2022-08-14T13:46:58.262Z,39.20
2022-08-14T13:49:29.273Z,39.30
2022-08-14T13:52:04.831Z,39.30
2022-08-14T13:54:55.719Z,39.30
2022-08-14T13:57:30.425Z,39.50
2022-08-14T14:00:04.681Z,39.50
2022-08-14T14:02:42.531Z,39.70
2022-08-14T14:05:18.739Z,39.70
2022-08-14T14:07:53.031Z,39.60
2022-08-14T14:10:28.591Z,39.50
2022-08-14T14:12:56.997Z,39.40
2022-08-14T14:15:28.699Z,39.50
2022-08-14T14:18:03.224Z,39.60
2022-08-14T14:20:35.178Z,39.70
2022-08-14T14:23:11.689Z,39.80
2022-08-14T14:25:49.279Z,39.90
2022-08-14T14:28:32.381Z,40.00
2022-08-14T14:31:06.608Z,40.00
2022-08-14T14:33:52.201Z,40.00
2022-08-14T14:36:31.028Z,40.00
2022-08-14T14:39:02.157Z,40.00
2022-08-14T14:41:37.629Z,40.00
2022-08-14T14:44:09.240Z,40.00
2022-08-14T14:46:42.159Z,40.00
2022-08-14T14:49:14.463Z,39.90
2022-08-14T14:51:46.835Z,39.80
2022-08-14T14:54:31.862Z,39.70
2022-08-14T14:57:08.998Z,39.70
2022-08-14T14:59:38.903Z,39.60
2022-08-14T15:02:09.711Z,39.50
2022-08-14T15:04:43.844Z,39.40
2022-08-14T15:07:13.104Z,39.20
2022-08-14T15:09:44.793Z,38.90
2022-08-14T15:12:56.502Z,38.60
2022-08-14T15:15:09.092Z,38.40
2022-08-14T15:17:41.510Z,38.30
2022-08-14T15:20:17.526Z,38.20
2022-08-14T15:23:00.967Z,38.20
2022-08-14T15:25:37.067Z,38.10
2022-08-14T15:28:12.564Z,38.10
2022-08-14T15:30:42.429Z,38.10
2022-08-14T15:33:13.610Z,38.10
2022-08-14T15:35:46.074Z,38.30
2022-08-14T15:38:17.594Z,38.40
2022-08-14T15:40:55.911Z,38.40
2022-08-14T15:43:27.303Z,38.50
2022-08-14T15:45:59.354Z,38.50
2022-08-14T15:48:32.207Z,38.50
2022-08-14T15:51:00.488Z,38.40
2022-08-14T15:53:31.684Z,38.30
2022-08-14T15:56:00.542Z,38.20
2022-08-14T15:58:30.198Z,38.00
2022-08-14T16:01:31.234Z,37.90
2022-08-14T16:04:07.309Z,37.80
2022-08-14T16:06:35.731Z,37.70
2022-08-14T16:09:10.668Z,37.60
2022-08-14T16:11:43.278Z,37.60
2022-08-14T16:14:20.595Z,37.40
2022-08-14T16:16:59.717Z,37.40
2022-08-14T16:19:32.406Z,37.30
2022-08-14T16:22:59.241Z,37.30
2022-08-14T16:25:05.178Z,37.20
2022-08-14T16:27:40.718Z,37.10
2022-08-14T16:30:24.920Z,37.00
2022-08-14T16:32:59.136Z,36.80
2022-08-14T16:35:42.508Z,36.70
2022-08-14T16:38:46.101Z,36.60
2022-08-14T16:41:18.251Z,36.60
2022-08-14T16:43:59.315Z,36.40
2022-08-14T16:46:31.268Z,36.20
2022-08-14T16:49:01.630Z,36.10
2022-08-14T16:51:34.772Z,36.00
2022-08-14T16:54:20.577Z,35.80
2022-08-14T16:56:49.682Z,35.70
2022-08-14T16:59:30.337Z,35.50
2022-08-14T17:02:12.729Z,35.40
2022-08-14T17:04:49.199Z,35.30
2022-08-14T17:07:19.047Z,35.10
2022-08-14T17:09:48.891Z,35.00
2022-08-14T17:12:33.686Z,34.90
2022-08-14T17:15:10.484Z,34.80
2022-08-14T17:17:58.332Z,34.70
2022-08-14T17:20:53.266Z,34.50
2022-08-14T17:23:19.175Z,34.40
2022-08-14T17:25:49.401Z,34.30
2022-08-14T17:28:52.304Z,34.30
2022-08-14T17:31:12.312Z,34.20
2022-08-14T17:33:44.658Z,34.10
2022-08-14T17:36:22.960Z,33.90
2022-08-14T17:39:06.891Z,33.80
2022-08-14T17:41:43.989Z,33.70
2022-08-14T17:44:21.337Z,33.60
2022-08-14T17:46:55.333Z,33.50
2022-08-14T17:49:28.333Z,33.40
2022-08-14T17:52:07.543Z,33.30
2022-08-14T17:54:52.486Z,33.20
2022-08-14T17:57:24.427Z,33.10
2022-08-14T17:59:59.359Z,33.00
2022-08-14T18:02:31.584Z,32.80
2022-08-14T18:05:03.124Z,32.70
2022-08-14T18:07:59.624Z,32.50
2022-08-14T18:10:51.793Z,32.30
2022-08-14T18:13:12.633Z,32.10
2022-08-14T18:15:44.344Z,32.00
2022-08-14T18:18:19.906Z,31.90
2022-08-14T18:21:40.163Z,31.70
2022-08-14T18:23:42.764Z,31.50
2022-08-14T18:26:37.107Z,31.50
2022-08-14T18:29:03.152Z,31.40
2022-08-14T18:31:45.323Z,31.20
2022-08-14T18:34:30.832Z,31.10
2022-08-14T18:37:17.850Z,31.00
2022-08-14T18:40:01.162Z,30.90
2022-08-14T18:42:45.769Z,30.80
2022-08-14T18:45:19.140Z,30.60
2022-08-14T18:48:28.736Z,30.50
2022-08-14T18:51:45.986Z,30.40
2022-08-14T18:54:29.741Z,30.20
2022-08-14T18:57:03.357Z,30.10
2022-08-14T18:59:39.353Z,30.00
2022-08-14T19:02:43.375Z,29.90
2022-08-14T19:05:13.474Z,29.70
2022-08-14T19:07:44.376Z,29.70
2022-08-14T19:10:33.421Z,29.50
2022-08-14T19:13:12.085Z,29.40
2022-08-14T19:15:44.278Z,29.30
2022-08-14T19:18:29.371Z,29.20
2022-08-14T19:21:00.659Z,29.10
2022-08-14T19:23:43.266Z,29.00
2022-08-14T19:26:36.173Z,29.00
2022-08-14T19:29:38.035Z,28.90
2022-08-14T19:32:40.784Z,28.80
2022-08-14T19:35:49.746Z,28.60
2022-08-14T19:38:59.623Z,28.60
2022-08-14T19:41:34.149Z,28.40
2022-08-14T19:44:14.858Z,28.40
2022-08-14T19:47:00.478Z,28.30
2022-08-14T19:50:24.964Z,28.10
2022-08-14T19:52:35.334Z,28.10
2022-08-14T19:55:17.390Z,28.00
2022-08-14T19:57:52.347Z,27.90
2022-08-14T20:00:29.491Z,27.90
2022-08-14T20:03:11.936Z,27.80
2022-08-14T20:05:46.381Z,27.80
2022-08-14T20:11:07.164Z,27.70
2022-08-14T20:11:20.525Z,27.70
2022-08-14T20:14:09.481Z,27.70
2022-08-14T20:16:42.114Z,27.60
2022-08-14T20:19:17.888Z,27.50
2022-08-14T20:22:00.641Z,27.50
2022-08-14T20:24:45.142Z,27.40
2022-08-14T20:27:44.356Z,27.40
2022-08-14T20:30:37.604Z,27.30
2022-08-14T20:33:11.042Z,27.30
2022-08-14T20:35:44.264Z,27.20
2022-08-14T20:38:31.578Z,27.20
2022-08-14T20:41:06.674Z,27.10
2022-08-14T20:43:55.428Z,27.10
2022-08-14T20:46:29.638Z,27.10
2022-08-14T20:49:01.242Z,27.00
2022-08-14T20:51:38.891Z,26.90
2022-08-14T20:54:34.460Z,26.90
2022-08-14T20:57:10.415Z,26.80
2022-08-14T20:59:43.293Z,26.80
2022-08-14T21:02:34.684Z,26.70
2022-08-14T21:05:19.351Z,26.70
2022-08-14T21:07:50.406Z,26.70
2022-08-14T21:10:33.421Z,26.60
2022-08-14T21:13:26.566Z,26.50
2022-08-14T21:15:57.936Z,26.50
2022-08-14T21:18:32.261Z,26.50
2022-08-14T21:21:11.667Z,26.50
2022-08-14T21:23:54.540Z,26.40
2022-08-14T21:26:51.370Z,26.30
2022-08-14T21:29:14.517Z,26.30
2022-08-14T21:31:55.860Z,26.20
2022-08-14T21:34:27.354Z,26.20
2022-08-14T21:37:09.837Z,26.20
2022-08-14T21:39:39.037Z,26.10
2022-08-14T21:42:10.883Z,26.10
2022-08-14T21:44:43.846Z,26.10
2022-08-14T21:47:16.557Z,26.10
2022-08-14T21:49:48.097Z,26.10
2022-08-14T21:52:49.607Z,26.00
2022-08-14T21:55:13.849Z,26.00
2022-08-14T21:58:38.379Z,26.00
2022-08-14T22:00:42.241Z,26.00
2022-08-14T22:03:17.318Z,26.00
2022-08-14T22:05:51.906Z,26.00
2022-08-14T22:08:22.413Z,26.00
2022-08-14T22:10:57.501Z,26.00
2022-08-14T22:13:32.113Z,26.00
2022-08-14T22:16:02.451Z,26.00
2022-08-14T22:18:31.409Z,26.00
2022-08-14T22:21:05.525Z,26.00
2022-08-14T22:23:35.456Z,26.00
2022-08-14T22:26:04.896Z,26.00
2022-08-14T22:28:33.799Z,25.90
2022-08-14T22:31:10.528Z,25.90
2022-08-14T22:33:43.008Z,25.90
2022-08-14T22:36:42.238Z,25.90
2022-08-14T22:39:11.019Z,25.90
2022-08-14T22:41:42.672Z,25.90
2022-08-14T22:44:17.822Z,25.90
2022-08-14T22:46:46.612Z,26.00
2022-08-14T22:50:31.239Z,26.00
2022-08-14T22:52:33.291Z,26.00
2022-08-14T22:54:59.074Z,26.00
2022-08-14T22:57:37.224Z,26.00
2022-08-14T23:00:16.352Z,25.90
2022-08-14T23:02:46.778Z,25.90
2022-08-14T23:05:16.335Z,25.90
2022-08-14T23:08:58.889Z,25.90
2022-08-14T23:10:35.132Z,25.90
2022-08-14T23:13:07.516Z,25.80
2022-08-14T23:15:38.267Z,25.80
2022-08-14T23:18:13.136Z,25.80
2022-08-14T23:20:42.435Z,25.80
2022-08-14T23:23:22.882Z,25.90
2022-08-14T23:25:58.700Z,25.90
2022-08-14T23:28:56.930Z,25.90
2022-08-14T23:31:35.745Z,25.80
2022-08-14T23:34:07.115Z,25.60
2022-08-14T23:36:53.030Z,25.70
2022-08-14T23:39:29.963Z,25.80
2022-08-14T23:42:04.326Z,25.80
2022-08-14T23:44:36.832Z,25.90
2022-08-14T23:47:12.007Z,26.00
2022-08-14T23:50:03.259Z,26.00
2022-08-14T23:52:51.233Z,26.10
2022-08-14T23:55:31.712Z,26.10
2022-08-14T23:58:01.097Z,26.10
